sensor_id;sensor_type;location;lat;lon;timestamp;P1;durP1;ratioP1;P2;durP2;ratioP2
572;SDS011;271;51.114;13.780;2022-09-09T00:00:53;17.43;;;2.10;;
572;SDS011;271;51.114;13.780;2022-09-09T00:03:26;17.20;;;2.43;;
572;SDS011;271;51.114;13.780;2022-09-09T00:05:59;17.30;;;2.37;;
572;SDS011;271;51.114;13.780;2022-09-09T00:08:35;19.70;;;2.33;;
572;SDS011;271;51.114;13.780;2022-09-09T00:11:13;16.80;;;2.23;;
572;SDS011;271;51.114;13.780;2022-09-09T00:13:51;18.27;;;2.33;;
572;SDS011;271;51.114;13.780;2022-09-09T00:16:21;18.17;;;2.53;;
572;SDS011;271;51.114;13.780;2022-09-09T00:18:52;17.03;;;2.23;;
572;SDS011;271;51.114;13.780;2022-09-09T00:21:26;17.53;;;2.17;;
572;SDS011;271;51.114;13.780;2022-09-09T00:23:58;18.03;;;2.20;;
572;SDS011;271;51.114;13.780;2022-09-09T00:26:30;17.60;;;2.60;;
572;SDS011;271;51.114;13.780;2022-09-09T00:29:03;17.13;;;2.10;;
572;SDS011;271;51.114;13.780;2022-09-09T00:31:36;17.27;;;2.00;;
572;SDS011;271;51.114;13.780;2022-09-09T00:34:05;18.27;;;2.70;;
572;SDS011;271;51.114;13.780;2022-09-09T00:36:39;17.00;;;1.93;;
572;SDS011;271;51.114;13.780;2022-09-09T00:39:08;19.60;;;2.20;;
572;SDS011;271;51.114;13.780;2022-09-09T00:41:44;19.60;;;3.00;;
572;SDS011;271;51.114;13.780;2022-09-09T00:44:25;20.23;;;2.77;;
572;SDS011;271;51.114;13.780;2022-09-09T00:47:01;22.13;;;2.67;;
572;SDS011;271;51.114;13.780;2022-09-09T00:49:39;17.13;;;2.30;;
572;SDS011;271;51.114;13.780;2022-09-09T00:52:18;17.77;;;2.10;;
572;SDS011;271;51.114;13.780;2022-09-09T00:54:54;17.20;;;2.10;;
572;SDS011;271;51.114;13.780;2022-09-09T00:57:30;19.93;;;2.43;;
572;SDS011;271;51.114;13.780;2022-09-09T01:00:15;18.30;;;2.30;;
572;SDS011;271;51.114;13.780;2022-09-09T01:02:46;17.53;;;2.60;;
572;SDS011;271;51.114;13.780;2022-09-09T01:05:24;18.77;;;2.53;;
572;SDS011;271;51.114;13.780;2022-09-09T01:08:00;21.07;;;3.07;;
572;SDS011;271;51.114;13.780;2022-09-09T01:10:30;17.43;;;2.57;;
572;SDS011;271;51.114;13.780;2022-09-09T01:13:11;17.90;;;2.00;;
572;SDS011;271;51.114;13.780;2022-09-09T01:15:43;17.83;;;2.40;;
572;SDS011;271;51.114;13.780;2022-09-09T01:18:13;17.47;;;2.30;;
572;SDS011;271;51.114;13.780;2022-09-09T01:20:46;22.57;;;3.00;;
572;SDS011;271;51.114;13.780;2022-09-09T01:23:26;18.17;;;2.40;;
572;SDS011;271;51.114;13.780;2022-09-09T01:26:11;17.33;;;2.17;;
572;SDS011;271;51.114;13.780;2022-09-09T01:28:44;20.17;;;2.50;;
572;SDS011;271;51.114;13.780;2022-09-09T01:31:14;19.40;;;2.37;;
572;SDS011;271;51.114;13.780;2022-09-09T01:33:43;20.37;;;2.30;;
572;SDS011;271;51.114;13.780;2022-09-09T01:36:11;17.60;;;1.70;;
572;SDS011;271;51.114;13.780;2022-09-09T01:38:50;17.50;;;1.80;;
572;SDS011;271;51.114;13.780;2022-09-09T01:41:19;21.07;;;2.07;;
572;SDS011;271;51.114;13.780;2022-09-09T01:43:47;18.63;;;2.00;;
572;SDS011;271;51.114;13.780;2022-09-09T01:46:14;18.63;;;2.10;;
572;SDS011;271;51.114;13.780;2022-09-09T01:48:42;21.10;;;2.30;;
572;SDS011;271;51.114;13.780;2022-09-09T01:51:09;18.80;;;2.40;;
572;SDS011;271;51.114;13.780;2022-09-09T01:53:36;19.77;;;2.57;;
572;SDS011;271;51.114;13.780;2022-09-09T01:56:07;17.77;;;2.20;;
572;SDS011;271;51.114;13.780;2022-09-09T01:58:46;17.97;;;2.00;;
572;SDS011;271;51.114;13.780;2022-09-09T02:01:25;20.33;;;2.77;;
572;SDS011;271;51.114;13.780;2022-09-09T02:04:02;21.03;;;2.63;;
572;SDS011;271;51.114;13.780;2022-09-09T02:06:35;18.33;;;2.20;;
572;SDS011;271;51.114;13.780;2022-09-09T02:09:04;18.73;;;2.20;;
572;SDS011;271;51.114;13.780;2022-09-09T02:11:32;21.23;;;2.23;;
572;SDS011;271;51.114;13.780;2022-09-09T02:14:02;18.67;;;2.60;;
572;SDS011;271;51.114;13.780;2022-09-09T02:16:32;20.37;;;2.63;;
572;SDS011;271;51.114;13.780;2022-09-09T02:19:06;18.60;;;2.20;;
572;SDS011;271;51.114;13.780;2022-09-09T02:21:37;18.73;;;2.40;;
572;SDS011;271;51.114;13.780;2022-09-09T02:24:05;21.53;;;2.77;;
572;SDS011;271;51.114;13.780;2022-09-09T02:26:35;18.00;;;2.43;;
572;SDS011;271;51.114;13.780;2022-09-09T02:29:08;21.87;;;2.33;;
572;SDS011;271;51.114;13.780;2022-09-09T02:31:38;17.17;;;1.90;;
572;SDS011;271;51.114;13.780;2022-09-09T02:34:07;19.03;;;2.20;;
572;SDS011;271;51.114;13.780;2022-09-09T02:36:36;20.30;;;2.87;;
572;SDS011;271;51.114;13.780;2022-09-09T02:39:06;17.90;;;2.20;;
572;SDS011;271;51.114;13.780;2022-09-09T02:41:36;24.33;;;2.70;;
572;SDS011;271;51.114;13.780;2022-09-09T02:44:08;18.50;;;2.43;;
572;SDS011;271;51.114;13.780;2022-09-09T02:46:39;18.67;;;2.47;;
572;SDS011;271;51.114;13.780;2022-09-09T02:49:21;18.87;;;2.33;;
572;SDS011;271;51.114;13.780;2022-09-09T02:51:57;17.57;;;2.03;;
572;SDS011;271;51.114;13.780;2022-09-09T02:54:29;18.23;;;2.43;;
572;SDS011;271;51.114;13.780;2022-09-09T02:56:59;19.70;;;2.93;;
572;SDS011;271;51.114;13.780;2022-09-09T02:59:31;20.40;;;2.10;;
572;SDS011;271;51.114;13.780;2022-09-09T03:01:58;18.90;;;2.57;;
572;SDS011;271;51.114;13.780;2022-09-09T03:04:26;18.50;;;2.40;;
572;SDS011;271;51.114;13.780;2022-09-09T03:06:53;19.93;;;2.50;;
572;SDS011;271;51.114;13.780;2022-09-09T03:09:19;22.10;;;2.20;;
572;SDS011;271;51.114;13.780;2022-09-09T03:11:46;18.90;;;3.33;;
572;SDS011;271;51.114;13.780;2022-09-09T03:14:14;17.33;;;2.00;;
572;SDS011;271;51.114;13.780;2022-09-09T03:16:43;18.67;;;1.87;;
572;SDS011;271;51.114;13.780;2022-09-09T03:19:11;17.40;;;2.10;;
572;SDS011;271;51.114;13.780;2022-09-09T03:21:37;19.57;;;2.73;;
572;SDS011;271;51.114;13.780;2022-09-09T03:24:04;20.93;;;2.70;;
572;SDS011;271;51.114;13.780;2022-09-09T03:26:31;18.67;;;2.13;;
572;SDS011;271;51.114;13.780;2022-09-09T03:28:58;16.90;;;1.70;;
572;SDS011;271;51.114;13.780;2022-09-09T03:31:26;18.40;;;2.20;;
572;SDS011;271;51.114;13.780;2022-09-09T03:33:56;18.00;;;2.17;;
572;SDS011;271;51.114;13.780;2022-09-09T03:36:23;17.57;;;2.20;;
572;SDS011;271;51.114;13.780;2022-09-09T03:38:51;17.40;;;1.80;;
572;SDS011;271;51.114;13.780;2022-09-09T03:41:19;20.00;;;1.90;;
572;SDS011;271;51.114;13.780;2022-09-09T03:43:46;18.10;;;2.43;;
572;SDS011;271;51.114;13.780;2022-09-09T03:46:12;19.57;;;2.10;;
572;SDS011;271;51.114;13.780;2022-09-09T03:48:39;18.83;;;1.90;;
572;SDS011;271;51.114;13.780;2022-09-09T03:51:07;19.03;;;2.33;;
572;SDS011;271;51.114;13.780;2022-09-09T03:53:34;18.40;;;2.40;;
572;SDS011;271;51.114;13.780;2022-09-09T03:56:02;19.90;;;2.10;;
572;SDS011;271;51.114;13.780;2022-09-09T03:58:31;18.60;;;1.87;;
572;SDS011;271;51.114;13.780;2022-09-09T04:00:59;19.30;;;2.10;;
572;SDS011;271;51.114;13.780;2022-09-09T04:03:27;18.00;;;2.20;;
572;SDS011;271;51.114;13.780;2022-09-09T04:05:55;20.80;;;4.50;;
572;SDS011;271;51.114;13.780;2022-09-09T04:08:24;17.50;;;1.90;;
572;SDS011;271;51.114;13.780;2022-09-09T04:10:52;18.03;;;1.57;;
572;SDS011;271;51.114;13.780;2022-09-09T04:13:23;19.00;;;2.03;;
572;SDS011;271;51.114;13.780;2022-09-09T04:15:50;17.57;;;1.93;;
572;SDS011;271;51.114;13.780;2022-09-09T04:18:18;17.80;;;1.97;;
572;SDS011;271;51.114;13.780;2022-09-09T04:20:45;18.23;;;2.77;;
572;SDS011;271;51.114;13.780;2022-09-09T04:23:12;17.60;;;2.37;;
572;SDS011;271;51.114;13.780;2022-09-09T04:25:44;18.20;;;2.17;;
572;SDS011;271;51.114;13.780;2022-09-09T04:28:11;18.20;;;2.07;;
572;SDS011;271;51.114;13.780;2022-09-09T04:30:38;20.20;;;2.00;;
572;SDS011;271;51.114;13.780;2022-09-09T04:33:05;18.93;;;2.33;;
572;SDS011;271;51.114;13.780;2022-09-09T04:35:32;17.43;;;1.80;;
572;SDS011;271;51.114;13.780;2022-09-09T04:37:59;18.43;;;1.80;;
572;SDS011;271;51.114;13.780;2022-09-09T04:40:27;17.70;;;1.90;;
572;SDS011;271;51.114;13.780;2022-09-09T04:42:57;17.30;;;1.80;;
572;SDS011;271;51.114;13.780;2022-09-09T04:45:24;22.93;;;2.10;;
572;SDS011;271;51.114;13.780;2022-09-09T04:47:52;17.80;;;1.80;;
572;SDS011;271;51.114;13.780;2022-09-09T04:50:18;19.20;;;1.83;;
572;SDS011;271;51.114;13.780;2022-09-09T04:52:45;17.57;;;1.60;;
572;SDS011;271;51.114;13.780;2022-09-09T04:55:13;17.40;;;1.77;;
572;SDS011;271;51.114;13.780;2022-09-09T04:57:39;18.33;;;1.80;;
572;SDS011;271;51.114;13.780;2022-09-09T05:00:08;18.00;;;1.70;;
572;SDS011;271;51.114;13.780;2022-09-09T05:02:37;18.30;;;1.90;;
572;SDS011;271;51.114;13.780;2022-09-09T05:05:05;18.23;;;2.60;;
572;SDS011;271;51.114;13.780;2022-09-09T05:07:32;21.80;;;2.20;;
572;SDS011;271;51.114;13.780;2022-09-09T05:09:59;17.30;;;1.60;;
572;SDS011;271;51.114;13.780;2022-09-09T05:12:26;17.60;;;1.70;;
572;SDS011;271;51.114;13.780;2022-09-09T05:14:53;20.13;;;1.70;;
572;SDS011;271;51.114;13.780;2022-09-09T05:17:21;19.60;;;2.37;;
572;SDS011;271;51.114;13.780;2022-09-09T05:19:48;17.07;;;1.57;;
572;SDS011;271;51.114;13.780;2022-09-09T05:22:18;16.77;;;1.50;;
572;SDS011;271;51.114;13.780;2022-09-09T05:24:46;18.33;;;1.93;;
572;SDS011;271;51.114;13.780;2022-09-09T05:27:15;19.30;;;1.90;;
572;SDS011;271;51.114;13.780;2022-09-09T05:29:44;17.13;;;1.90;;
572;SDS011;271;51.114;13.780;2022-09-09T05:32:11;18.13;;;2.03;;
572;SDS011;271;51.114;13.780;2022-09-09T05:34:41;16.87;;;2.00;;
572;SDS011;271;51.114;13.780;2022-09-09T05:37:08;18.60;;;1.43;;
572;SDS011;271;51.114;13.780;2022-09-09T05:39:35;17.27;;;2.03;;
572;SDS011;271;51.114;13.780;2022-09-09T05:42:03;17.93;;;1.90;;
572;SDS011;271;51.114;13.780;2022-09-09T05:44:30;18.57;;;2.70;;
572;SDS011;271;51.114;13.780;2022-09-09T05:46:57;17.60;;;1.93;;
572;SDS011;271;51.114;13.780;2022-09-09T05:49:23;17.03;;;1.33;;
572;SDS011;271;51.114;13.780;2022-09-09T05:51:52;20.93;;;2.20;;
572;SDS011;271;51.114;13.780;2022-09-09T05:54:19;20.30;;;2.27;;
572;SDS011;271;51.114;13.780;2022-09-09T05:56:46;22.03;;;2.40;;
572;SDS011;271;51.114;13.780;2022-09-09T05:59:14;19.80;;;2.80;;
572;SDS011;271;51.114;13.780;2022-09-09T06:01:41;23.83;;;2.83;;
572;SDS011;271;51.114;13.780;2022-09-09T06:04:08;20.57;;;3.00;;
572;SDS011;271;51.114;13.780;2022-09-09T06:06:35;18.40;;;2.57;;
572;SDS011;271;51.114;13.780;2022-09-09T06:09:06;20.07;;;2.57;;
572;SDS011;271;51.114;13.780;2022-09-09T06:11:35;22.10;;;3.20;;
572;SDS011;271;51.114;13.780;2022-09-09T06:14:03;18.33;;;2.60;;
572;SDS011;271;51.114;13.780;2022-09-09T06:16:31;23.90;;;2.60;;
572;SDS011;271;51.114;13.780;2022-09-09T06:18:58;18.83;;;2.80;;
572;SDS011;271;51.114;13.780;2022-09-09T06:21:28;18.23;;;2.07;;
572;SDS011;271;51.114;13.780;2022-09-09T06:23:56;18.47;;;1.90;;
572;SDS011;271;51.114;13.780;2022-09-09T06:26:25;17.27;;;1.97;;
572;SDS011;271;51.114;13.780;2022-09-09T06:28:53;16.10;;;1.20;;
572;SDS011;271;51.114;13.780;2022-09-09T06:31:23;16.40;;;1.70;;
572;SDS011;271;51.114;13.780;2022-09-09T06:33:52;17.50;;;1.90;;
572;SDS011;271;51.114;13.780;2022-09-09T06:36:20;15.70;;;1.43;;
572;SDS011;271;51.114;13.780;2022-09-09T06:38:49;15.73;;;1.40;;
572;SDS011;271;51.114;13.780;2022-09-09T06:41:16;15.20;;;1.33;;
572;SDS011;271;51.114;13.780;2022-09-09T06:43:46;15.90;;;1.27;;
572;SDS011;271;51.114;13.780;2022-09-09T06:46:14;16.10;;;1.40;;
572;SDS011;271;51.114;13.780;2022-09-09T06:48:43;15.40;;;1.40;;
572;SDS011;271;51.114;13.780;2022-09-09T06:51:11;16.80;;;2.90;;
572;SDS011;271;51.114;13.780;2022-09-09T06:53:40;15.47;;;1.40;;
572;SDS011;271;51.114;13.780;2022-09-09T06:56:17;15.97;;;1.43;;
572;SDS011;271;51.114;13.780;2022-09-09T06:58:48;16.63;;;1.50;;
572;SDS011;271;51.114;13.780;2022-09-09T07:01:17;17.17;;;1.17;;
572;SDS011;271;51.114;13.780;2022-09-09T07:03:46;15.00;;;1.10;;
572;SDS011;271;51.114;13.780;2022-09-09T07:06:15;15.70;;;1.20;;
572;SDS011;271;51.114;13.780;2022-09-09T07:08:43;15.73;;;1.33;;
572;SDS011;271;51.114;13.780;2022-09-09T07:11:14;16.20;;;1.30;;
572;SDS011;271;51.114;13.780;2022-09-09T07:13:40;15.03;;;1.20;;
572;SDS011;271;51.114;13.780;2022-09-09T07:16:09;15.00;;;1.40;;
572;SDS011;271;51.114;13.780;2022-09-09T07:18:38;15.50;;;1.47;;
572;SDS011;271;51.114;13.780;2022-09-09T07:21:06;15.53;;;1.40;;
572;SDS011;271;51.114;13.780;2022-09-09T07:23:33;15.17;;;1.23;;
572;SDS011;271;51.114;13.780;2022-09-09T07:26:01;15.93;;;1.80;;
572;SDS011;271;51.114;13.780;2022-09-09T07:28:28;15.77;;;1.70;;
572;SDS011;271;51.114;13.780;2022-09-09T07:30:56;15.87;;;1.40;;
572;SDS011;271;51.114;13.780;2022-09-09T07:33:27;14.33;;;0.93;;
572;SDS011;271;51.114;13.780;2022-09-09T07:36:02;17.50;;;1.70;;
572;SDS011;271;51.114;13.780;2022-09-09T07:38:30;14.80;;;1.17;;
572;SDS011;271;51.114;13.780;2022-09-09T07:41:02;15.00;;;1.40;;
572;SDS011;271;51.114;13.780;2022-09-09T07:43:31;15.10;;;1.33;;
572;SDS011;271;51.114;13.780;2022-09-09T07:45:58;16.17;;;1.40;;
572;SDS011;271;51.114;13.780;2022-09-09T07:48:27;16.67;;;1.70;;
572;SDS011;271;51.114;13.780;2022-09-09T07:51:02;15.23;;;1.53;;
572;SDS011;271;51.114;13.780;2022-09-09T07:53:33;17.20;;;1.43;;
572;SDS011;271;51.114;13.780;2022-09-09T07:56:05;14.20;;;1.00;;
572;SDS011;271;51.114;13.780;2022-09-09T07:58:35;14.40;;;1.30;;
572;SDS011;271;51.114;13.780;2022-09-09T08:01:06;15.93;;;1.30;;
572;SDS011;271;51.114;13.780;2022-09-09T08:03:36;15.47;;;1.50;;
572;SDS011;271;51.114;13.780;2022-09-09T08:06:03;15.20;;;1.33;;
572;SDS011;271;51.114;13.780;2022-09-09T08:08:32;14.70;;;1.10;;
572;SDS011;271;51.114;13.780;2022-09-09T08:11:03;15.00;;;1.50;;
572;SDS011;271;51.114;13.780;2022-09-09T08:13:32;15.20;;;1.23;;
572;SDS011;271;51.114;13.780;2022-09-09T08:16:06;14.27;;;0.97;;
572;SDS011;271;51.114;13.780;2022-09-09T08:18:35;14.63;;;1.20;;
572;SDS011;271;51.114;13.780;2022-09-09T08:21:06;15.80;;;1.27;;
572;SDS011;271;51.114;13.780;2022-09-09T08:23:36;16.07;;;1.17;;
572;SDS011;271;51.114;13.780;2022-09-09T08:26:05;14.37;;;1.20;;
572;SDS011;271;51.114;13.780;2022-09-09T08:28:34;18.53;;;1.70;;
572;SDS011;271;51.114;13.780;2022-09-09T08:31:07;14.70;;;1.20;;
572;SDS011;271;51.114;13.780;2022-09-09T08:33:37;15.30;;;1.40;;
572;SDS011;271;51.114;13.780;2022-09-09T08:36:05;16.00;;;1.50;;
572;SDS011;271;51.114;13.780;2022-09-09T08:38:34;14.47;;;1.20;;
572;SDS011;271;51.114;13.780;2022-09-09T08:41:04;15.30;;;1.70;;
572;SDS011;271;51.114;13.780;2022-09-09T08:43:42;15.23;;;1.63;;
572;SDS011;271;51.114;13.780;2022-09-09T08:46:13;14.90;;;1.70;;
572;SDS011;271;51.114;13.780;2022-09-09T08:48:49;14.87;;;1.50;;
572;SDS011;271;51.114;13.780;2022-09-09T08:51:23;16.60;;;1.70;;
572;SDS011;271;51.114;13.780;2022-09-09T08:53:53;15.10;;;1.30;;
572;SDS011;271;51.114;13.780;2022-09-09T08:56:21;14.70;;;1.40;;
572;SDS011;271;51.114;13.780;2022-09-09T08:58:50;16.80;;;1.83;;
572;SDS011;271;51.114;13.780;2022-09-09T09:01:32;15.97;;;1.57;;
572;SDS011;271;51.114;13.780;2022-09-09T09:04:11;14.80;;;1.43;;
572;SDS011;271;51.114;13.780;2022-09-09T09:06:50;14.90;;;1.80;;
572;SDS011;271;51.114;13.780;2022-09-09T09:09:26;14.77;;;1.40;;
572;SDS011;271;51.114;13.780;2022-09-09T09:11:59;14.47;;;1.20;;
572;SDS011;271;51.114;13.780;2022-09-09T09:14:28;15.63;;;1.90;;
572;SDS011;271;51.114;13.780;2022-09-09T09:16:59;14.97;;;1.30;;
572;SDS011;271;51.114;13.780;2022-09-09T09:19:29;16.50;;;1.70;;
572;SDS011;271;51.114;13.780;2022-09-09T09:21:59;15.77;;;1.50;;
572;SDS011;271;51.114;13.780;2022-09-09T09:24:34;18.07;;;1.73;;
572;SDS011;271;51.114;13.780;2022-09-09T09:27:09;19.03;;;1.53;;
572;SDS011;271;51.114;13.780;2022-09-09T09:29:38;17.20;;;1.90;;
572;SDS011;271;51.114;13.780;2022-09-09T09:32:09;15.10;;;1.50;;
572;SDS011;271;51.114;13.780;2022-09-09T09:34:41;16.70;;;1.77;;
572;SDS011;271;51.114;13.780;2022-09-09T09:37:12;14.70;;;1.83;;
572;SDS011;271;51.114;13.780;2022-09-09T09:39:44;15.10;;;1.63;;
572;SDS011;271;51.114;13.780;2022-09-09T09:42:12;15.70;;;1.80;;
572;SDS011;271;51.114;13.780;2022-09-09T09:44:42;15.17;;;1.63;;
572;SDS011;271;51.114;13.780;2022-09-09T09:47:10;19.60;;;2.20;;
572;SDS011;271;51.114;13.780;2022-09-09T09:49:39;14.70;;;1.57;;
572;SDS011;271;51.114;13.780;2022-09-09T09:52:18;16.47;;;1.90;;
572;SDS011;271;51.114;13.780;2022-09-09T09:54:48;15.20;;;1.70;;
572;SDS011;271;51.114;13.780;2022-09-09T09:57:16;16.60;;;1.70;;
572;SDS011;271;51.114;13.780;2022-09-09T09:59:44;15.20;;;1.37;;
572;SDS011;271;51.114;13.780;2022-09-09T10:02:16;15.47;;;1.97;;
572;SDS011;271;51.114;13.780;2022-09-09T10:04:45;14.90;;;1.87;;
572;SDS011;271;51.114;13.780;2022-09-09T10:07:13;16.90;;;1.60;;
572;SDS011;271;51.114;13.780;2022-09-09T10:09:46;17.43;;;1.70;;
572;SDS011;271;51.114;13.780;2022-09-09T10:12:20;14.93;;;1.30;;
572;SDS011;271;51.114;13.780;2022-09-09T10:14:56;15.60;;;1.60;;
572;SDS011;271;51.114;13.780;2022-09-09T10:17:34;14.70;;;1.10;;
572;SDS011;271;51.114;13.780;2022-09-09T10:20:21;15.10;;;1.13;;
572;SDS011;271;51.114;13.780;2022-09-09T10:23:01;15.30;;;1.40;;
572;SDS011;271;51.114;13.780;2022-09-09T10:25:44;15.30;;;1.33;;
572;SDS011;271;51.114;13.780;2022-09-09T10:28:41;16.80;;;1.50;;
572;SDS011;271;51.114;13.780;2022-09-09T10:31:32;15.10;;;1.43;;
572;SDS011;271;51.114;13.780;2022-09-09T10:34:13;15.07;;;1.30;;
572;SDS011;271;51.114;13.780;2022-09-09T10:37:01;15.40;;;1.40;;
572;SDS011;271;51.114;13.780;2022-09-09T10:39:38;14.50;;;1.27;;
572;SDS011;271;51.114;13.780;2022-09-09T10:42:06;14.47;;;1.23;;
572;SDS011;271;51.114;13.780;2022-09-09T10:44:41;15.93;;;1.30;;
572;SDS011;271;51.114;13.780;2022-09-09T10:47:23;15.30;;;1.20;;
572;SDS011;271;51.114;13.780;2022-09-09T10:50:03;14.13;;;1.10;;
572;SDS011;271;51.114;13.780;2022-09-09T10:52:44;14.97;;;1.27;;
572;SDS011;271;51.114;13.780;2022-09-09T10:55:20;15.60;;;1.50;;
572;SDS011;271;51.114;13.780;2022-09-09T10:57:51;14.27;;;1.00;;
572;SDS011;271;51.114;13.780;2022-09-09T11:00:20;14.37;;;1.17;;
572;SDS011;271;51.114;13.780;2022-09-09T11:02:48;14.20;;;1.10;;
572;SDS011;271;51.114;13.780;2022-09-09T11:05:19;14.47;;;1.30;;
572;SDS011;271;51.114;13.780;2022-09-09T11:07:48;14.87;;;1.90;;
572;SDS011;271;51.114;13.780;2022-09-09T11:10:24;15.37;;;1.30;;
572;SDS011;271;51.114;13.780;2022-09-09T11:12:57;14.70;;;1.20;;
572;SDS011;271;51.114;13.780;2022-09-09T11:15:31;17.07;;;1.33;;
572;SDS011;271;51.114;13.780;2022-09-09T11:18:05;14.50;;;1.00;;
572;SDS011;271;51.114;13.780;2022-09-09T11:20:36;14.30;;;1.10;;
572;SDS011;271;51.114;13.780;2022-09-09T11:23:04;15.30;;;1.50;;
572;SDS011;271;51.114;13.780;2022-09-09T11:25:39;14.70;;;1.17;;
572;SDS011;271;51.114;13.780;2022-09-09T11:28:24;15.03;;;1.10;;
572;SDS011;271;51.114;13.780;2022-09-09T11:31:05;14.70;;;1.60;;
572;SDS011;271;51.114;13.780;2022-09-09T11:33:58;14.40;;;1.30;;
572;SDS011;271;51.114;13.780;2022-09-09T11:39:51;14.40;;;1.43;;
572;SDS011;271;51.114;13.780;2022-09-09T11:42:31;14.87;;;1.43;;
572;SDS011;271;51.114;13.780;2022-09-09T11:45:07;15.27;;;1.40;;
572;SDS011;271;51.114;13.780;2022-09-09T11:47:37;14.67;;;1.40;;
572;SDS011;271;51.114;13.780;2022-09-09T11:50:08;15.50;;;1.83;;
572;SDS011;271;51.114;13.780;2022-09-09T11:53:02;17.03;;;1.97;;
572;SDS011;271;51.114;13.780;2022-09-09T11:55:33;19.10;;;2.67;;
572;SDS011;271;51.114;13.780;2022-09-09T11:58:03;15.97;;;2.20;;
572;SDS011;271;51.114;13.780;2022-09-09T12:00:32;16.67;;;2.37;;
572;SDS011;271;51.114;13.780;2022-09-09T12:03:02;15.60;;;1.90;;
572;SDS011;271;51.114;13.780;2022-09-09T12:05:36;17.33;;;2.10;;
572;SDS011;271;51.114;13.780;2022-09-09T12:08:05;15.50;;;1.70;;
572;SDS011;271;51.114;13.780;2022-09-09T12:10:33;16.70;;;1.80;;
572;SDS011;271;51.114;13.780;2022-09-09T12:13:09;15.00;;;1.90;;
572;SDS011;271;51.114;13.780;2022-09-09T12:15:46;14.57;;;1.60;;
572;SDS011;271;51.114;13.780;2022-09-09T12:18:15;16.10;;;1.80;;
572;SDS011;271;51.114;13.780;2022-09-09T12:20:51;16.07;;;1.57;;
572;SDS011;271;51.114;13.780;2022-09-09T12:23:25;15.73;;;1.40;;
572;SDS011;271;51.114;13.780;2022-09-09T12:26:06;16.20;;;1.77;;
572;SDS011;271;51.114;13.780;2022-09-09T12:28:51;15.40;;;1.67;;
572;SDS011;271;51.114;13.780;2022-09-09T12:31:28;15.40;;;1.90;;
572;SDS011;271;51.114;13.780;2022-09-09T12:34:09;16.13;;;1.80;;
572;SDS011;271;51.114;13.780;2022-09-09T12:36:37;15.30;;;1.70;;
572;SDS011;271;51.114;13.780;2022-09-09T12:39:14;15.70;;;1.60;;
572;SDS011;271;51.114;13.780;2022-09-09T12:41:50;14.93;;;1.90;;
572;SDS011;271;51.114;13.780;2022-09-09T12:44:23;14.67;;;1.33;;
572;SDS011;271;51.114;13.780;2022-09-09T12:46:53;15.87;;;1.80;;
572;SDS011;271;51.114;13.780;2022-09-09T12:49:24;14.67;;;1.70;;
572;SDS011;271;51.114;13.780;2022-09-09T12:51:54;15.23;;;1.53;;
572;SDS011;271;51.114;13.780;2022-09-09T12:54:23;14.90;;;1.63;;
572;SDS011;271;51.114;13.780;2022-09-09T12:56:50;17.27;;;2.23;;
572;SDS011;271;51.114;13.780;2022-09-09T12:59:21;15.90;;;1.60;;
572;SDS011;271;51.114;13.780;2022-09-09T13:01:57;17.23;;;2.07;;
572;SDS011;271;51.114;13.780;2022-09-09T13:04:24;15.80;;;1.73;;
572;SDS011;271;51.114;13.780;2022-09-09T13:06:51;15.10;;;1.57;;
572;SDS011;271;51.114;13.780;2022-09-09T13:09:18;15.10;;;1.43;;
572;SDS011;271;51.114;13.780;2022-09-09T13:11:46;15.20;;;1.60;;
572;SDS011;271;51.114;13.780;2022-09-09T13:14:18;15.23;;;1.63;;
572;SDS011;271;51.114;13.780;2022-09-09T13:16:56;15.00;;;1.50;;
572;SDS011;271;51.114;13.780;2022-09-09T13:19:24;24.10;;;2.57;;
572;SDS011;271;51.114;13.780;2022-09-09T13:21:53;15.07;;;1.30;;
572;SDS011;271;51.114;13.780;2022-09-09T13:24:24;15.13;;;1.50;;
572;SDS011;271;51.114;13.780;2022-09-09T13:26:55;15.07;;;1.50;;
572;SDS011;271;51.114;13.780;2022-09-09T13:29:22;14.83;;;1.50;;
572;SDS011;271;51.114;13.780;2022-09-09T13:31:49;14.73;;;1.30;;
572;SDS011;271;51.114;13.780;2022-09-09T13:34:29;14.53;;;1.37;;
572;SDS011;271;51.114;13.780;2022-09-09T13:36:59;14.90;;;1.40;;
572;SDS011;271;51.114;13.780;2022-09-09T13:39:28;15.13;;;1.23;;
572;SDS011;271;51.114;13.780;2022-09-09T13:41:55;15.57;;;2.30;;
572;SDS011;271;51.114;13.780;2022-09-09T13:44:23;14.33;;;1.30;;
572;SDS011;271;51.114;13.780;2022-09-09T13:47:02;15.03;;;1.20;;
572;SDS011;271;51.114;13.780;2022-09-09T13:49:32;15.23;;;1.20;;
572;SDS011;271;51.114;13.780;2022-09-09T13:52:03;14.77;;;1.60;;
572;SDS011;271;51.114;13.780;2022-09-09T13:54:32;14.60;;;1.33;;
572;SDS011;271;51.114;13.780;2022-09-09T13:57:00;14.83;;;1.33;;
572;SDS011;271;51.114;13.780;2022-09-09T13:59:27;15.77;;;1.50;;
572;SDS011;271;51.114;13.780;2022-09-09T14:01:54;15.00;;;1.53;;
572;SDS011;271;51.114;13.780;2022-09-09T14:04:21;17.10;;;1.80;;
572;SDS011;271;51.114;13.780;2022-09-09T14:06:50;15.63;;;1.53;;
572;SDS011;271;51.114;13.780;2022-09-09T14:09:17;15.27;;;1.33;;
572;SDS011;271;51.114;13.780;2022-09-09T14:11:44;14.73;;;1.43;;
572;SDS011;271;51.114;13.780;2022-09-09T14:14:11;14.90;;;1.70;;
572;SDS011;271;51.114;13.780;2022-09-09T14:16:38;16.00;;;1.63;;
572;SDS011;271;51.114;13.780;2022-09-09T14:19:05;15.30;;;1.57;;
572;SDS011;271;51.114;13.780;2022-09-09T14:21:31;14.53;;;1.63;;
572;SDS011;271;51.114;13.780;2022-09-09T14:23:59;15.07;;;1.53;;
572;SDS011;271;51.114;13.780;2022-09-09T14:26:26;15.73;;;1.70;;
572;SDS011;271;51.114;13.780;2022-09-09T14:28:55;14.57;;;1.40;;
572;SDS011;271;51.114;13.780;2022-09-09T14:31:21;15.50;;;1.40;;
572;SDS011;271;51.114;13.780;2022-09-09T14:33:48;14.70;;;1.17;;
572;SDS011;271;51.114;13.780;2022-09-09T14:36:16;15.17;;;1.30;;
572;SDS011;271;51.114;13.780;2022-09-09T14:38:43;14.70;;;1.30;;
572;SDS011;271;51.114;13.780;2022-09-09T14:41:11;14.10;;;1.13;;
572;SDS011;271;51.114;13.780;2022-09-09T14:43:42;14.77;;;1.27;;
572;SDS011;271;51.114;13.780;2022-09-09T14:46:10;15.00;;;1.77;;
572;SDS011;271;51.114;13.780;2022-09-09T14:48:38;14.67;;;1.60;;
572;SDS011;271;51.114;13.780;2022-09-09T14:51:06;14.67;;;1.47;;
572;SDS011;271;51.114;13.780;2022-09-09T14:53:40;14.83;;;1.60;;
572;SDS011;271;51.114;13.780;2022-09-09T14:56:08;15.10;;;1.43;;
572;SDS011;271;51.114;13.780;2022-09-09T14:58:38;14.70;;;1.30;;
572;SDS011;271;51.114;13.780;2022-09-09T15:01:05;14.60;;;1.40;;
572;SDS011;271;51.114;13.780;2022-09-09T15:03:34;16.47;;;1.60;;
572;SDS011;271;51.114;13.780;2022-09-09T15:06:05;15.50;;;1.77;;
572;SDS011;271;51.114;13.780;2022-09-09T15:08:34;14.80;;;1.50;;
572;SDS011;271;51.114;13.780;2022-09-09T15:11:01;15.33;;;1.53;;
572;SDS011;271;51.114;13.780;2022-09-09T15:13:30;18.17;;;2.50;;
572;SDS011;271;51.114;13.780;2022-09-09T15:16:02;16.40;;;1.90;;
572;SDS011;271;51.114;13.780;2022-09-09T15:18:31;15.80;;;1.83;;
572;SDS011;271;51.114;13.780;2022-09-09T15:20:58;15.23;;;1.37;;
572;SDS011;271;51.114;13.780;2022-09-09T15:23:25;14.40;;;1.30;;
572;SDS011;271;51.114;13.780;2022-09-09T15:25:52;14.60;;;1.30;;
572;SDS011;271;51.114;13.780;2022-09-09T15:28:20;15.80;;;1.90;;
572;SDS011;271;51.114;13.780;2022-09-09T15:30:49;14.90;;;1.87;;
572;SDS011;271;51.114;13.780;2022-09-09T15:33:17;14.70;;;1.40;;
572;SDS011;271;51.114;13.780;2022-09-09T15:35:44;17.00;;;1.30;;
572;SDS011;271;51.114;13.780;2022-09-09T15:38:10;15.10;;;1.40;;
572;SDS011;271;51.114;13.780;2022-09-09T15:40:38;14.23;;;1.20;;